Wetterdaten: Woche 25.04.05 - 01.05.05 (KW17)
Datum Zeit Temperatur Luftfeuchte Luftdruck Niederschlag Wind Richtung Sonne Solar Taupunkt Windchill
25.04.2005 00:00 10.6 C 100 % 1008.8 hPa 0.0 l/m 0.0 km/h (0 Bft) N 0.00 h 0 W/m 10.6 C 10.6 C
25.04.2005 01:00 10.3 C 100 % 1008.1 hPa 0.6 l/m 0.1 km/h (0 Bft) O 0.00 h 0 W/m 10.3 C 10.3 C
25.04.2005 02:00 10.3 C 100 % 1007.1 hPa 0.3 l/m 0.5 km/h (0 Bft) NW 0.00 h 0 W/m 10.3 C 10.3 C
25.04.2005 03:00 9.9 C 100 % 1006.8 hPa 0.0 l/m 0.0 km/h (0 Bft) N 0.00 h 0 W/m 9.9 C 9.9 C
25.04.2005 04:00 8.8 C 100 % 1006.9 hPa 0.0 l/m 0.0 km/h (0 Bft) N 0.00 h 0 W/m 8.8 C 8.8 C
25.04.2005 05:00 9.2 C 100 % 1006.9 hPa 0.0 l/m 0.0 km/h (0 Bft) N 0.00 h 0 W/m 9.2 C 9.2 C
25.04.2005 06:00 9.3 C 100 % 1007.5 hPa 0.0 l/m 1.9 km/h (1 Bft) SO 0.00 h 2 W/m 9.3 C 9.1 C
25.04.2005 07:00 9.9 C 100 % 1007.8 hPa 1.2 l/m 1.1 km/h (0 Bft) SO 0.00 h 20 W/m 9.9 C 9.9 C
25.04.2005 08:00 9.4 C 100 % 1008.7 hPa 0.9 l/m 3.4 km/h (1 Bft) SO 0.00 h 58 W/m 9.4 C 9.1 C
25.04.2005 09:00 10.3 C 96 % 1008.8 hPa 0.0 l/m 4.4 km/h (1 Bft) SO 0.40 h 315 W/m 9.7 C 10.0 C
25.04.2005 10:00 10.9 C 91 % 1008.7 hPa 0.0 l/m 4.9 km/h (1 Bft) S-SO 0.00 h 279 W/m 9.5 C 10.9 C
25.04.2005 11:00 11.3 C 86 % 1009.4 hPa 0.0 l/m 7.0 km/h (2 Bft) S 0.00 h 240 W/m 9.1 C 11.3 C
25.04.2005 12:00 10.7 C 88 % 1009.8 hPa 2.4 l/m 11.2 km/h (2 Bft) W-NW 0.00 h 204 W/m 8.7 C 10.4 C
25.04.2005 13:00 10.4 C 90 % 1010.0 hPa 0.3 l/m 21.7 km/h (4 Bft) W-NW 0.00 h 281 W/m 8.8 C 10.4 C
25.04.2005 14:00 10.7 C 86 % 1010.8 hPa 0.0 l/m 26.6 km/h (4 Bft) W-NW 0.30 h 424 W/m 8.4 C 10.7 C
25.04.2005 15:00 11.1 C 84 % 1010.8 hPa 0.3 l/m 21.6 km/h (4 Bft) W-NW 0.43 h 435 W/m 8.5 C 11.1 C
25.04.2005 16:00 11.6 C 79 % 1010.7 hPa 0.0 l/m 28.8 km/h (4 Bft) W-NW 0.80 h 431 W/m 8.2 C 11.6 C
25.04.2005 17:00 12.0 C 76 % 1010.9 hPa 0.0 l/m 20.5 km/h (4 Bft) W-NW 0.65 h 314 W/m 7.9 C 12.0 C
25.04.2005 18:00 12.0 C 76 % 1011.6 hPa 0.0 l/m 13.8 km/h (3 Bft) W-NW 0.00 h 143 W/m 7.9 C 12.0 C
25.04.2005 19:00 11.7 C 77 % 1011.7 hPa 0.0 l/m 6.7 km/h (2 Bft) W-NW 0.00 h 52 W/m 7.8 C 11.7 C
25.04.2005 20:00 9.8 C 93 % 1012.9 hPa 0.9 l/m 3.5 km/h (1 Bft) SO 0.00 h 3 W/m 8.8 C 9.4 C
25.04.2005 21:00 8.6 C 98 % 1013.8 hPa 0.0 l/m 2.5 km/h (1 Bft) SO 0.00 h 0 W/m 8.4 C 8.4 C
25.04.2005 22:00 8.5 C 100 % 1014.3 hPa 0.0 l/m 3.8 km/h (1 Bft) SO 0.00 h 0 W/m 8.4 C 8.1 C
25.04.2005 23:00 8.7 C 100 % 1014.6 hPa 0.0 l/m 0.4 km/h (0 Bft) SO 0.00 h 0 W/m 8.6 C 8.6 C
26.04.2005 00:00 8.6 C 99 % 1015.3 hPa 0.0 l/m 0.0 km/h (0 Bft) N 0.00 h 0 W/m 8.5 C 8.6 C
26.04.2005 01:00 8.3 C 100 % 1015.3 hPa 0.0 l/m 0.1 km/h (0 Bft) SO 0.00 h 0 W/m 8.3 C 8.3 C
26.04.2005 02:00 7.8 C 100 % 1015.4 hPa 0.0 l/m 0.0 km/h (0 Bft) N 0.00 h 0 W/m 7.8 C 7.8 C
26.04.2005 03:00 8.1 C 100 % 1015.9 hPa 0.0 l/m 0.0 km/h (0 Bft) N 0.00 h 0 W/m 8.1 C 8.1 C
26.04.2005 04:00 7.9 C 100 % 1016.4 hPa 0.0 l/m 0.6 km/h (0 Bft) O-SO 0.00 h 0 W/m 7.9 C 7.8 C
26.04.2005 05:00 8.0 C 100 % 1016.4 hPa 0.0 l/m 2.3 km/h (1 Bft) SO 0.00 h 0 W/m 8.0 C 7.8 C
26.04.2005 06:00 8.0 C 99 % 1017.0 hPa 0.0 l/m 2.9 km/h (1 Bft) SO 0.00 h 12 W/m 7.9 C 7.7 C
26.04.2005 07:00 8.9 C 95 % 1017.3 hPa 0.0 l/m 0.0 km/h (0 Bft) N 0.00 h 46 W/m 8.1 C 8.9 C
26.04.2005 08:00 9.5 C 95 % 1017.9 hPa 0.0 l/m 0.1 km/h (0 Bft) N 0.00 h 85 W/m 8.7 C 9.5 C
26.04.2005 09:00 10.7 C 91 % 1018.1 hPa 0.0 l/m 1.0 km/h (0 Bft) SO 0.27 h 308 W/m 9.2 C 10.7 C
26.04.2005 10:00 12.3 C 77 % 1017.9 hPa 0.0 l/m 0.8 km/h (0 Bft) O 0.50 h 390 W/m 8.4 C 12.3 C
26.04.2005 11:00 13.9 C 71 % 1017.7 hPa 0.0 l/m 2.0 km/h (1 Bft) O-NO 0.53 h 548 W/m 8.7 C 13.9 C
26.04.2005 12:00 15.7 C 63 % 1017.4 hPa 0.0 l/m 4.9 km/h (1 Bft) W-NW 0.90 h 778 W/m 8.6 C 15.7 C
26.04.2005 13:00 14.6 C 66 % 1017.6 hPa 0.0 l/m 11.5 km/h (2 Bft) NW 0.00 h 305 W/m 8.3 C 14.6 C
26.04.2005 14:00 12.9 C 74 % 1017.8 hPa 0.0 l/m 10.0 km/h (2 Bft) NW 0.00 h 247 W/m 8.4 C 12.9 C
26.04.2005 15:00 15.8 C 57 % 1017.0 hPa 0.0 l/m 1.0 km/h (0 Bft) N-NW 0.87 h 681 W/m 7.3 C 15.8 C
26.04.2005 16:00 17.5 C 50 % 1016.2 hPa 0.0 l/m 0.6 km/h (0 Bft) NW 1.00 h 646 W/m 6.9 C 17.5 C
26.04.2005 17:00 18.8 C 47 % 1015.4 hPa 0.0 l/m 6.4 km/h (2 Bft) W-NW 1.00 h 465 W/m 7.4 C 18.8 C
26.04.2005 18:00 18.2 C 47 % 1015.0 hPa 0.0 l/m 5.6 km/h (1 Bft) W-NW 0.80 h 275 W/m 6.8 C 18.2 C
26.04.2005 19:00 16.4 C 57 % 1015.3 hPa 0.0 l/m 0.0 km/h (0 Bft) N 0.07 h 75 W/m 7.7 C 16.4 C
26.04.2005 20:00 13.6 C 72 % 1015.6 hPa 0.0 l/m 5.1 km/h (1 Bft) O-SO 0.13 h 22 W/m 8.5 C 13.6 C
26.04.2005 21:00 11.0 C 84 % 1016.0 hPa 0.0 l/m 2.2 km/h (1 Bft) O-SO 0.00 h 0 W/m 8.3 C 11.0 C
26.04.2005 22:00 9.5 C 90 % 1016.2 hPa 0.0 l/m 0.0 km/h (0 Bft) N 0.00 h 0 W/m 7.9 C 9.5 C
26.04.2005 23:00 8.7 C 94 % 1016.8 hPa 0.0 l/m 0.4 km/h (0 Bft) O-SO 0.00 h 0 W/m 7.8 C 8.7 C
27.04.2005 00:00 8.6 C 94 % 1017.4 hPa 0.0 l/m 1.0 km/h (0 Bft) O-SO 0.00 h 0 W/m 7.7 C 8.5 C
27.04.2005 01:00 7.9 C 96 % 1017.0 hPa 0.0 l/m 1.7 km/h (1 Bft) O-SO 0.00 h 0 W/m 7.3 C 7.8 C
27.04.2005 02:00 8.2 C 98 % 1017.1 hPa 0.0 l/m 0.8 km/h (0 Bft) O-SO 0.00 h 0 W/m 7.9 C 8.1 C
27.04.2005 03:00 8.4 C 99 % 1017.5 hPa 0.3 l/m 2.4 km/h (1 Bft) O-SO 0.00 h 0 W/m 8.3 C 8.3 C
27.04.2005 04:00 8.6 C 100 % 1018.0 hPa 0.0 l/m 0.2 km/h (0 Bft) O-SO 0.00 h 0 W/m 8.6 C 8.6 C
27.04.2005 05:00 8.6 C 100 % 1017.4 hPa 0.0 l/m 0.0 km/h (0 Bft) N 0.00 h 0 W/m 8.6 C 8.6 C
27.04.2005 06:00 8.2 C 100 % 1018.0 hPa 0.0 l/m 0.3 km/h (0 Bft) O-SO 0.00 h 10 W/m 8.2 C 8.2 C
27.04.2005 07:00 9.0 C 100 % 1018.4 hPa 0.3 l/m 0.0 km/h (0 Bft) N 0.00 h 20 W/m 9.0 C 9.0 C
27.04.2005 08:00 9.4 C 100 % 1019.3 hPa 0.9 l/m 2.7 km/h (1 Bft) O-SO 0.00 h 42 W/m 9.4 C 9.1 C
27.04.2005 09:00 10.2 C 100 % 1019.2 hPa 0.3 l/m 10.8 km/h (2 Bft) NW 0.00 h 58 W/m 10.2 C 9.9 C
27.04.2005 10:00 10.8 C 98 % 1019.9 hPa 0.9 l/m 6.0 km/h (2 Bft) NW 0.00 h 68 W/m 10.5 C 10.8 C
27.04.2005 11:00 10.7 C 97 % 1020.2 hPa 1.2 l/m 5.8 km/h (2 Bft) NW 0.00 h 94 W/m 10.2 C 10.7 C
27.04.2005 12:00 11.1 C 96 % 1020.1 hPa 0.9 l/m 1.6 km/h (1 Bft) NW 0.00 h 118 W/m 10.5 C 11.1 C
27.04.2005 13:00 11.4 C 95 % 1020.1 hPa 0.3 l/m 5.9 km/h (2 Bft) NW 0.00 h 139 W/m 10.7 C 11.4 C
27.04.2005 14:00 12.0 C 94 % 1020.0 hPa 0.3 l/m 1.4 km/h (1 Bft) NW 0.03 h 234 W/m 11.0 C 12.0 C
27.04.2005 15:00 12.0 C 97 % 1020.5 hPa 0.3 l/m 0.3 km/h (0 Bft) S-SO 0.00 h 109 W/m 11.5 C 12.0 C
27.04.2005 16:00 11.9 C 95 % 1021.1 hPa 0.3 l/m 4.3 km/h (1 Bft) W-NW 0.00 h 104 W/m 11.0 C 11.9 C
27.04.2005 17:00 11.6 C 94 % 1021.1 hPa 0.0 l/m 4.7 km/h (1 Bft) W-NW 0.00 h 124 W/m 10.7 C 11.6 C
27.04.2005 18:00 12.8 C 89 % 1020.9 hPa 0.0 l/m 1.8 km/h (1 Bft) SO 0.67 h 285 W/m 11.0 C 12.8 C
27.04.2005 19:00 11.8 C 91 % 1021.1 hPa 0.0 l/m 5.3 km/h (1 Bft) SO 0.33 h 84 W/m 10.3 C 11.8 C
27.04.2005 20:00 10.0 C 95 % 1021.4 hPa 0.0 l/m 0.5 km/h (0 Bft) SO 0.00 h 16 W/m 9.2 C 10.0 C
27.04.2005 21:00 9.2 C 99 % 1022.5 hPa 0.0 l/m 2.5 km/h (1 Bft) SO 0.00 h 0 W/m 9.1 C 9.0 C
27.04.2005 22:00 9.0 C 100 % 1023.1 hPa 0.0 l/m 2.1 km/h (1 Bft) O-SO 0.00 h 0 W/m 9.0 C 8.8 C
27.04.2005 23:00 9.2 C 100 % 1023.5 hPa 0.0 l/m 5.3 km/h (1 Bft) O-SO 0.00 h 0 W/m 9.2 C 8.5 C
28.04.2005 00:00 8.8 C 100 % 1023.6 hPa 0.0 l/m 1.0 km/h (0 Bft) O-SO 0.00 h 0 W/m 8.8 C 8.7 C
28.04.2005 01:00 8.3 C 100 % 1023.6 hPa 0.0 l/m 3.2 km/h (1 Bft) O-SO 0.00 h 0 W/m 8.3 C 8.0 C
28.04.2005 02:00 7.9 C 100 % 1023.4 hPa 0.0 l/m 0.0 km/h (0 Bft) N 0.00 h 0 W/m 7.9 C 7.9 C
28.04.2005 03:00 8.4 C 100 % 1022.8 hPa 0.0 l/m 0.0 km/h (0 Bft) N 0.00 h 0 W/m 8.4 C 8.4 C
28.04.2005 04:00 8.6 C 100 % 1022.6 hPa 0.0 l/m 0.0 km/h (0 Bft) N 0.00 h 0 W/m 8.6 C 8.6 C
28.04.2005 05:00 8.8 C 100 % 1023.4 hPa 0.0 l/m 0.0 km/h (0 Bft) N 0.00 h 0 W/m 8.8 C 8.8 C
28.04.2005 06:00 8.8 C 100 % 1023.6 hPa 0.0 l/m 1.2 km/h (1 Bft) O-SO 0.00 h 9 W/m 8.8 C 8.6 C
28.04.2005 07:00 9.1 C 100 % 1023.5 hPa 0.0 l/m 0.2 km/h (0 Bft) O-NO 0.00 h 49 W/m 9.1 C 9.1 C
28.04.2005 08:00 9.7 C 98 % 1023.4 hPa 0.0 l/m 1.2 km/h (1 Bft) NO 0.00 h 104 W/m 9.3 C 9.6 C
28.04.2005 09:00 10.7 C 92 % 1023.3 hPa 0.0 l/m 1.6 km/h (1 Bft) O-SO 0.23 h 261 W/m 9.5 C 10.7 C
28.04.2005 10:00 12.4 C 85 % 1023.1 hPa 0.0 l/m 1.9 km/h (1 Bft) O-SO 0.75 h 527 W/m 9.8 C 12.4 C
28.04.2005 11:00 14.0 C 78 % 1022.9 hPa 0.0 l/m 3.0 km/h (1 Bft) O-SO 0.83 h 698 W/m 10.2 C 14.0 C
28.04.2005 12:00 16.6 C 64 % 1022.5 hPa 0.0 l/m 4.8 km/h (1 Bft) O-SO 1.00 h 818 W/m 9.8 C 16.6 C
28.04.2005 13:00 18.1 C 55 % 1021.3 hPa 0.0 l/m 3.3 km/h (1 Bft) O-SO 1.00 h 791 W/m 9.0 C 18.1 C
28.04.2005 14:00 18.9 C 46 % 1021.2 hPa 0.0 l/m 3.6 km/h (1 Bft) W 0.62 h 613 W/m 7.0 C 18.9 C
28.04.2005 15:00 19.0 C 46 % 1020.3 hPa 0.0 l/m 0.6 km/h (0 Bft) SO 0.00 h 378 W/m 7.0 C 19.0 C
28.04.2005 16:00 19.1 C 47 % 1020.1 hPa 0.0 l/m 0.4 km/h (0 Bft) O-SO 0.00 h 243 W/m 7.5 C 19.1 C
28.04.2005 17:00 18.8 C 49 % 1020.1 hPa 0.0 l/m 0.6 km/h (0 Bft) O-SO 0.00 h 170 W/m 7.8 C 18.8 C
28.04.2005 18:00 18.7 C 51 % 1020.2 hPa 0.0 l/m 0.0 km/h (0 Bft) N 0.00 h 121 W/m 8.2 C 18.7 C
28.04.2005 19:00 18.1 C 56 % 1020.2 hPa 0.0 l/m 0.0 km/h (0 Bft) N 0.00 h 59 W/m 9.0 C 18.1 C
28.04.2005 20:00 15.9 C 73 % 1020.7 hPa 0.0 l/m 0.9 km/h (0 Bft) SO 0.00 h 13 W/m 11.0 C 15.9 C
28.04.2005 21:00 14.9 C 78 % 1021.7 hPa 0.0 l/m 1.8 km/h (1 Bft) O-SO 0.00 h 0 W/m 11.1 C 14.9 C
28.04.2005 22:00 13.7 C 87 % 1021.9 hPa 0.0 l/m 3.3 km/h (1 Bft) O-SO 0.00 h 0 W/m 11.6 C 13.7 C
28.04.2005 23:00 13.1 C 90 % 1021.9 hPa 0.0 l/m 1.8 km/h (1 Bft) O-SO 0.00 h 0 W/m 11.5 C 13.1 C
29.04.2005 00:00 12.8 C 91 % 1022.0 hPa 0.0 l/m 0.0 km/h (0 Bft) O-SO 0.00 h 0 W/m 11.3 C 12.8 C
29.04.2005 01:00 12.4 C 92 % 1022.0 hPa 0.0 l/m 1.6 km/h (1 Bft) SO 0.00 h 0 W/m 11.1 C 12.4 C
29.04.2005 02:00 11.9 C 95 % 1022.1 hPa 0.0 l/m 1.5 km/h (1 Bft) O-SO 0.00 h 0 W/m 11.1 C 11.9 C
29.04.2005 03:00 11.5 C 97 % 1022.2 hPa 0.0 l/m 0.6 km/h (0 Bft) O-SO 0.00 h 0 W/m 11.0 C 11.5 C
29.04.2005 04:00 11.4 C 98 % 1022.2 hPa 0.0 l/m 1.5 km/h (1 Bft) O-SO 0.00 h 0 W/m 11.0 C 11.4 C
29.04.2005 05:00 11.1 C 97 % 1022.1 hPa 0.0 l/m 0.0 km/h (0 Bft) N 0.00 h 0 W/m 10.7 C 11.1 C
29.04.2005 06:00 10.8 C 99 % 1022.1 hPa 0.0 l/m 1.5 km/h (1 Bft) O-SO 0.00 h 14 W/m 10.6 C 10.8 C
29.04.2005 07:00 11.3 C 98 % 1022.2 hPa 0.0 l/m 0.0 km/h (0 Bft) N 0.00 h 78 W/m 10.9 C 11.3 C
29.04.2005 08:00 12.5 C 92 % 1022.0 hPa 0.0 l/m 0.0 km/h (0 Bft) N 0.00 h 138 W/m 11.2 C 12.5 C
29.04.2005 09:00 13.7 C 84 % 1021.9 hPa 0.0 l/m 0.2 km/h (0 Bft) O-SO 0.27 h 320 W/m 11.0 C 13.7 C
29.04.2005 10:00 15.9 C 74 % 1021.6 hPa 0.0 l/m 0.5 km/h (0 Bft) W-NW 0.80 h 448 W/m 11.3 C 15.9 C
29.04.2005 11:00 17.9 C 67 % 1021.1 hPa 0.0 l/m 1.7 km/h (1 Bft) W-NW 0.87 h 602 W/m 11.8 C 17.9 C
29.04.2005 12:00 20.5 C 62 % 1019.9 hPa 0.0 l/m 3.6 km/h (1 Bft) O-SO 0.97 h 779 W/m 12.9 C 20.5 C
29.04.2005 13:00 22.2 C 52 % 1019.7 hPa 0.0 l/m 4.3 km/h (1 Bft) O-SO 0.73 h 681 W/m 11.8 C 22.2 C
29.04.2005 14:00 23.6 C 46 % 1018.8 hPa 0.0 l/m 4.4 km/h (1 Bft) SO 1.00 h 801 W/m 11.4 C 23.6 C
29.04.2005 15:00 25.3 C 37 % 1018.2 hPa 0.0 l/m 9.2 km/h (2 Bft) W 1.00 h 738 W/m 9.4 C 25.3 C
29.04.2005 16:00 25.8 C 30 % 1017.2 hPa 0.0 l/m 15.6 km/h (3 Bft) W-NW 1.00 h 621 W/m 7.1 C 25.8 C
29.04.2005 17:00 25.7 C 25 % 1017.2 hPa 0.0 l/m 16.2 km/h (3 Bft) W-NW 1.00 h 508 W/m 4.1 C 25.7 C
29.04.2005 18:00 25.1 C 27 % 1017.3 hPa 0.0 l/m 14.9 km/h (3 Bft) W-NW 1.00 h 376 W/m 4.9 C 25.1 C
29.04.2005 19:00 23.4 C 34 % 1017.5 hPa 0.0 l/m 7.1 km/h (2 Bft) W-NW 1.00 h 156 W/m 6.6 C 23.4 C
29.04.2005 20:00 19.9 C 49 % 1017.9 hPa 0.0 l/m 1.3 km/h (1 Bft) SO 0.38 h 36 W/m 8.5 C 19.9 C
29.04.2005 21:00 16.1 C 67 % 1018.7 hPa 0.0 l/m 2.6 km/h (1 Bft) O-SO 0.00 h 0 W/m 10.1 C 16.1 C
29.04.2005 22:00 13.9 C 77 % 1019.8 hPa 0.0 l/m 1.9 km/h (1 Bft) O-SO 0.00 h 0 W/m 9.8 C 13.9 C
29.04.2005 23:00 12.7 C 81 % 1019.9 hPa 0.0 l/m 2.0 km/h (1 Bft) O-SO 0.00 h 0 W/m 9.6 C 12.7 C
30.04.2005 00:00 11.6 C 85 % 1020.1 hPa 0.0 l/m 2.1 km/h (1 Bft) O-SO 0.00 h 0 W/m 9.2 C 11.6 C
30.04.2005 01:00 10.9 C 89 % 1020.2 hPa 0.0 l/m 2.9 km/h (1 Bft) O-SO 0.00 h 0 W/m 9.2 C 10.9 C
30.04.2005 02:00 9.9 C 92 % 1020.3 hPa 0.0 l/m 0.4 km/h (0 Bft) O-SO 0.00 h 0 W/m 8.7 C 9.9 C
30.04.2005 03:00 9.1 C 96 % 1020.4 hPa 0.0 l/m 0.0 km/h (0 Bft) N 0.00 h 0 W/m 8.5 C 9.1 C
30.04.2005 04:00 8.7 C 98 % 1020.5 hPa 0.0 l/m 0.3 km/h (0 Bft) O-SO 0.00 h 0 W/m 8.4 C 8.7 C
30.04.2005 05:00 8.3 C 99 % 1020.5 hPa 0.0 l/m 0.2 km/h (0 Bft) O-SO 0.00 h 0 W/m 8.2 C 8.3 C
30.04.2005 06:00 8.3 C 99 % 1020.5 hPa 0.0 l/m 0.0 km/h (0 Bft) N 0.03 h 30 W/m 8.1 C 8.3 C
30.04.2005 07:00 9.7 C 95 % 1020.0 hPa 0.0 l/m 0.0 km/h (0 Bft) N 0.93 h 192 W/m 8.9 C 9.7 C
30.04.2005 08:00 11.9 C 85 % 1019.0 hPa 0.0 l/m 0.0 km/h (0 Bft) N 1.00 h 378 W/m 9.4 C 11.9 C
30.04.2005 09:00 14.6 C 72 % 1017.8 hPa 0.0 l/m 0.0 km/h (0 Bft) N 1.00 h 525 W/m 9.6 C 14.6 C
30.04.2005 10:00 17.5 C 64 % 1017.2 hPa 0.0 l/m 0.9 km/h (0 Bft) W 1.00 h 642 W/m 10.6 C 17.5 C
30.04.2005 11:00 20.2 C 55 % 1016.7 hPa 0.0 l/m 1.8 km/h (1 Bft) W-NW 1.00 h 755 W/m 10.9 C 20.2 C
30.04.2005 12:00 22.4 C 50 % 1015.5 hPa 0.0 l/m 1.8 km/h (1 Bft) W-NW 1.00 h 745 W/m 11.5 C 22.4 C
30.04.2005 13:00 24.4 C 46 % 1014.9 hPa 0.0 l/m 5.9 km/h (2 Bft) O-SO 1.00 h 839 W/m 11.8 C 24.4 C
30.04.2005 14:00 26.1 C 38 % 1014.0 hPa 0.0 l/m 5.0 km/h (1 Bft) O-SO 1.00 h 769 W/m 10.6 C 26.1 C
30.04.2005 15:00 26.8 C 33 % 1013.0 hPa 0.0 l/m 1.9 km/h (1 Bft) O-SO 0.97 h 655 W/m 9.2 C 26.8 C
30.04.2005 16:00 27.5 C 24 % 1012.6 hPa 0.0 l/m 1.6 km/h (1 Bft) O-SO 1.00 h 650 W/m 4.7 C 27.5 C
30.04.2005 17:00 27.4 C 26 % 1011.8 hPa 0.0 l/m 1.4 km/h (1 Bft) SO 1.00 h 520 W/m 6.0 C 27.4 C
30.04.2005 18:00 26.4 C 34 % 1011.9 hPa 0.0 l/m 3.7 km/h (1 Bft) O-SO 1.02 h 336 W/m 9.4 C 26.4 C
30.04.2005 19:00 24.7 C 41 % 1012.0 hPa 0.0 l/m 0.0 km/h (0 Bft) N 0.82 h 153 W/m 10.3 C 24.7 C
30.04.2005 20:00 20.4 C 56 % 1012.7 hPa 0.0 l/m 3.1 km/h (1 Bft) O-SO 0.07 h 22 W/m 11.2 C 20.4 C
30.04.2005 21:00 17.4 C 66 % 1013.1 hPa 0.0 l/m 6.7 km/h (2 Bft) O-SO 0.00 h 0 W/m 11.0 C 17.4 C
30.04.2005 22:00 15.1 C 74 % 1013.4 hPa 0.0 l/m 1.2 km/h (1 Bft) O-SO 0.00 h 0 W/m 10.4 C 15.1 C
30.04.2005 23:00 13.9 C 80 % 1013.5 hPa 0.0 l/m 1.0 km/h (0 Bft) O-SO 0.00 h 0 W/m 10.5 C 13.9 C
01.05.2005 00:00 13.1 C 83 % 1013.6 hPa 0.0 l/m 3.8 km/h (1 Bft) O-SO 0.00 h 0 W/m 10.2 C 13.1 C
01.05.2005 01:00 11.9 C 87 % 1013.8 hPa 0.0 l/m 0.8 km/h (0 Bft) O-SO 0.00 h 0 W/m 9.9 C 11.9 C
01.05.2005 02:00 11.0 C 91 % 1014.6 hPa 0.0 l/m 0.1 km/h (0 Bft) O-SO 0.00 h 0 W/m 9.5 C 11.0 C
01.05.2005 03:00 10.5 C 92 % 1015.0 hPa 0.0 l/m 0.7 km/h (0 Bft) O-SO 0.00 h 0 W/m 9.3 C 10.5 C
01.05.2005 04:00 9.8 C 97 % 1015.1 hPa 0.0 l/m 1.5 km/h (1 Bft) O-SO 0.00 h 0 W/m 9.3 C 9.7 C
01.05.2005 05:00 9.4 C 100 % 1015.4 hPa 0.0 l/m 3.1 km/h (1 Bft) O-SO 0.00 h 0 W/m 9.3 C 9.1 C
01.05.2005 06:00 9.7 C 100 % 1016.2 hPa 0.0 l/m 0.4 km/h (0 Bft) O-SO 0.00 h 21 W/m 9.7 C 9.7 C
01.05.2005 07:00 11.3 C 93 % 1015.9 hPa 0.0 l/m 0.0 km/h (0 Bft) N 0.10 h 79 W/m 10.3 C 11.3 C
01.05.2005 08:00 12.4 C 89 % 1015.8 hPa 0.0 l/m 0.0 km/h (0 Bft) N 0.07 h 141 W/m 10.6 C 12.4 C
01.05.2005 09:00 15.3 C 80 % 1015.4 hPa 0.0 l/m 2.0 km/h (1 Bft) O-SO 0.93 h 512 W/m 11.9 C 15.3 C
01.05.2005 10:00 19.0 C 66 % 1014.9 hPa 0.0 l/m 0.6 km/h (0 Bft) O-SO 0.80 h 577 W/m 12.5 C 19.0 C
01.05.2005 11:00 22.4 C 53 % 1014.5 hPa 0.0 l/m 5.1 km/h (1 Bft) O-SO 1.02 h 738 W/m 12.4 C 22.4 C
01.05.2005 12:00 24.8 C 45 % 1013.2 hPa 0.0 l/m 7.1 km/h (2 Bft) SO 0.98 h 802 W/m 12.0 C 24.8 C
01.05.2005 13:00 26.5 C 42 % 1012.9 hPa 0.0 l/m 6.3 km/h (2 Bft) SO 1.00 h 827 W/m 12.4 C 26.5 C
01.05.2005 14:00 27.8 C 37 % 1011.8 hPa 0.0 l/m 9.3 km/h (2 Bft) SO 1.00 h 790 W/m 11.7 C 27.8 C
01.05.2005 15:00 29.1 C 29 % 1011.6 hPa 0.0 l/m 6.8 km/h (2 Bft) SO 1.00 h 747 W/m 9.0 C 29.1 C
01.05.2005 16:00 29.5 C 20 % 1011.1 hPa 0.0 l/m 5.3 km/h (1 Bft) W 1.00 h 643 W/m 4.2 C 29.5 C
01.05.2005 17:00 28.9 C 21 % 1010.6 hPa 0.0 l/m 5.1 km/h (1 Bft) SO 1.00 h 512 W/m 4.0 C 28.9 C
01.05.2005 18:00 27.7 C 26 % 1010.7 hPa 0.0 l/m 4.5 km/h (1 Bft) O-SO 1.00 h 358 W/m 6.1 C 27.7 C
01.05.2005 19:00 25.9 C 35 % 1011.0 hPa 0.0 l/m 1.6 km/h (1 Bft) SO 1.00 h 178 W/m 9.0 C 25.9 C
01.05.2005 20:00 21.5 C 53 % 1012.0 hPa 0.0 l/m 6.6 km/h (2 Bft) O-SO 0.27 h 27 W/m 11.6 C 21.5 C
01.05.2005 21:00 18.6 C 64 % 1013.2 hPa 0.0 l/m 5.7 km/h (1 Bft) O-SO 0.00 h 0 W/m 11.7 C 18.6 C
01.05.2005 22:00 16.0 C 75 % 1014.3 hPa 0.0 l/m 2.3 km/h (1 Bft) O-SO 0.00 h 0 W/m 11.7 C 16.0 C
01.05.2005 23:00 15.0 C 80 % 1015.0 hPa 0.0 l/m 1.6 km/h (1 Bft) O-SO 0.00 h 0 W/m 11.5 C 15.0 C
Min-Datum _ 26.04.05 29.04.05 25.04.05 - 25.04.05 - - - 29.04.05 26.04.05
_ Min-Zeit 02:20 17:22 02:22 - 00:00 - - - 18:28 05:56
Minimum _ 7.6 C 20 % 1006.7 hPa - 0.0 km/h (0 Bft) - - - 0.5 C 6.2 C
Max-Datum _ 01.05.05 25.04.05 28.04.05 25.04.05 25.04.05 - 26.04.05 26.04.05 29.04.05 01.05.05
_ Max-Zeit 15:56 00:00 01:55 12:40 13:36 - 17:48 12:46 12:24 15:56
Maximum _ 29.7 C 100 % 1023.7 hPa 2.4 l/m 46.7 km/h
W-NW (6 Bft)
- 0.05 h 1022 W/m 14.4 C 29.7 C
Durchschnitt _ 14.0 C 79 % 1016.9 hPa #12.9 l/m 3.3 km/h (1 Bft) O-SO #48:08 h 332 W/m 9.3 C 14.0 C

Durchschnitt Minimum Temp.13.4 C
Durchschnitt Maximum Temp.14.7 C
© Kaiko 2005